Bend, OR (97707)

7:38 AM PDT on August 29, 2014 (GMT -0700)
Public Works Office | Change Station
CLOSE
Current Station
Personal Weather Station
Location: Sunriver, OR
Elevation: 4185 ft
Nearby Weather Stations

Elev 4185 ft 43.89 °N, 121.44 °W | Updated 3 minutes ago

Clear
Clear
45.9 °F
Feels Like 46 °F
N
0.0
Wind Variable Wind from SSW
Gusts 1.0 mph

Today
High -- | Low -- °F
--% Chance of Precip.
Yesterday
High -- | Low -- °F
Precip. -- in
6:26 AM 7:46 PM
Waxing Crescent, 14% visible
Pressure 30.06 in
Visibility 10.0 miles
Clouds Clear
Windchill 46 °F
Dew Point 43 °F
Humidity 89%
Rainfall 0.00 in
Snow Depth Not available.
UV 1 out of 12
Pollen 3.30 out of 12
Air Quality Not available.
Flu Activity Not available.
METAR KBDN 291435Z AUTO 20005KT 10SM CLR 13/08 A3006 RMK AO2

More Conditions Fewer Conditions

Pressure 30.06 in
Visibility 10.0 miles
Clouds Clear
Windchill 46 °F
Dew Point 43 °F
Humidity 89%
Rainfall 0.00 in
Snow Depth Not available.
UV 1 out of 12
Pollen 3.30 out of 12
Air Quality Not available.
Flu Activity Not available.
METAR KBDN 291435Z AUTO 20005KT 10SM CLR 13/08 A3006 RMK AO2

More Conditions Fewer Conditions

10-Day Weather Forecast

Almanac

Astronomy

Aug. 29, 2014 Rise Set
Actual Time 6:26 AM PDT 7:46 PM PDT
Civil Twilight 5:56 AM PDT 8:16 PM PDT
Nautical Twilight 5:20 AM PDT 8:52 PM PDT
Astronomical Twilight 4:42 AM PDT 9:30 PM PDT
Moon 10:29 AM PDT 9:37 PM PDT
Length of Visible Light 14h 20m
Length of Day
13h 20m
Tomorrow will be 2m 53s shorter.
Waxing Crescent, 14% of the Moon is Illuminated
Today
Waxing Crescent
Sep 2
First Quarter
Sep 8
Full
Sep 15
Last Quarter
Sep 24
New

Today's Extremes

State Highs State Lows

Community

WunderPhotos

Upload Photos

1,748,255 photos uploaded!

Nearby

Snow Depth

Station Depth Elevation
Three Creeks Meadow 0 in 5650 ft
Irish Taylor 0 in 5500 ft
Roaring River 0 in 4900 ft
Mckenzie 0 in 4800 ft
Cascade Summit 0 in 4880 ft

Earthquake Activity

City Distance Mag. Time & Date
Lakeview, Oregon 165 miles 2.5 5:31 AM PDT
2014-08-29
Lakeview, Oregon 165 miles 2.6 5:07 AM PDT
2014-08-29
Lakeview, Oregon 165 miles 3.1 2:47 AM PDT
2014-08-29
Lakeview, Oregon 166 miles 3.8 1:46 AM PDT
2014-08-29
Minimum magnitude displayed is 2.5.

Coastal Water Temperatures

Place Temperature
No Stations Reporting

Nearby Weather Stations